sensor_id;sensor_type;location;lat;lon;timestamp;P1;durP1;ratioP1;P2;durP2;ratioP2
77513;SDS011;66626;48.872;9.084;2024-02-14T00:01:14;9.90;;;3.22;;
77513;SDS011;66626;48.872;9.084;2024-02-14T00:03:39;8.05;;;2.83;;
77513;SDS011;66626;48.872;9.084;2024-02-14T00:06:05;5.28;;;2.55;;
77513;SDS011;66626;48.872;9.084;2024-02-14T00:08:30;4.85;;;2.45;;
77513;SDS011;66626;48.872;9.084;2024-02-14T00:10:56;4.82;;;2.20;;
77513;SDS011;66626;48.872;9.084;2024-02-14T00:13:21;7.10;;;3.30;;
77513;SDS011;66626;48.872;9.084;2024-02-14T00:15:47;5.75;;;2.47;;
77513;SDS011;66626;48.872;9.084;2024-02-14T00:18:12;5.95;;;2.60;;
77513;SDS011;66626;48.872;9.084;2024-02-14T00:20:38;5.68;;;2.95;;
77513;SDS011;66626;48.872;9.084;2024-02-14T00:23:06;7.25;;;2.80;;
77513;SDS011;66626;48.872;9.084;2024-02-14T00:25:31;6.88;;;2.75;;
77513;SDS011;66626;48.872;9.084;2024-02-14T00:27:57;7.22;;;3.10;;
77513;SDS011;66626;48.872;9.084;2024-02-14T00:30:25;7.15;;;3.35;;
77513;SDS011;66626;48.872;9.084;2024-02-14T00:32:51;5.40;;;2.60;;
77513;SDS011;66626;48.872;9.084;2024-02-14T00:35:16;6.25;;;2.95;;
77513;SDS011;66626;48.872;9.084;2024-02-14T00:37:42;7.15;;;3.03;;
77513;SDS011;66626;48.872;9.084;2024-02-14T00:40:07;8.82;;;3.17;;
77513;SDS011;66626;48.872;9.084;2024-02-14T00:42:33;7.63;;;4.20;;
77513;SDS011;66626;48.872;9.084;2024-02-14T00:44:58;5.22;;;2.28;;
77513;SDS011;66626;48.872;9.084;2024-02-14T00:47:24;5.75;;;2.88;;
77513;SDS011;66626;48.872;9.084;2024-02-14T00:49:49;4.60;;;2.25;;
77513;SDS011;66626;48.872;9.084;2024-02-14T00:52:15;7.68;;;3.20;;
77513;SDS011;66626;48.872;9.084;2024-02-14T00:54:41;9.82;;;3.30;;
77513;SDS011;66626;48.872;9.084;2024-02-14T00:57:07;6.50;;;3.00;;
77513;SDS011;66626;48.872;9.084;2024-02-14T00:59:32;7.57;;;2.88;;
77513;SDS011;66626;48.872;9.084;2024-02-14T01:02:00;6.72;;;2.58;;
77513;SDS011;66626;48.872;9.084;2024-02-14T01:04:26;6.03;;;2.30;;
77513;SDS011;66626;48.872;9.084;2024-02-14T01:06:51;4.97;;;2.50;;
77513;SDS011;66626;48.872;9.084;2024-02-14T01:09:16;7.05;;;2.95;;
77513;SDS011;66626;48.872;9.084;2024-02-14T01:11:42;8.38;;;2.78;;
77513;SDS011;66626;48.872;9.084;2024-02-14T01:14:07;5.85;;;2.35;;
77513;SDS011;66626;48.872;9.084;2024-02-14T01:16:33;5.70;;;2.65;;
77513;SDS011;66626;48.872;9.084;2024-02-14T01:18:58;7.05;;;2.90;;
77513;SDS011;66626;48.872;9.084;2024-02-14T01:21:23;6.53;;;3.13;;
77513;SDS011;66626;48.872;9.084;2024-02-14T01:23:49;6.10;;;2.90;;
77513;SDS011;66626;48.872;9.084;2024-02-14T01:26:14;7.18;;;3.67;;
77513;SDS011;66626;48.872;9.084;2024-02-14T01:28:39;7.60;;;2.80;;
77513;SDS011;66626;48.872;9.084;2024-02-14T01:31:05;7.18;;;2.67;;
77513;SDS011;66626;48.872;9.084;2024-02-14T01:33:30;6.80;;;2.88;;
77513;SDS011;66626;48.872;9.084;2024-02-14T01:35:55;8.75;;;3.58;;
77513;SDS011;66626;48.872;9.084;2024-02-14T01:38:21;10.15;;;2.42;;
77513;SDS011;66626;48.872;9.084;2024-02-14T01:40:46;11.23;;;3.63;;
77513;SDS011;66626;48.872;9.084;2024-02-14T01:43:12;5.28;;;2.67;;
77513;SDS011;66626;48.872;9.084;2024-02-14T01:45:39;8.30;;;2.80;;
77513;SDS011;66626;48.872;9.084;2024-02-14T01:48:05;8.25;;;3.00;;
77513;SDS011;66626;48.872;9.084;2024-02-14T01:50:31;6.55;;;3.08;;
77513;SDS011;66626;48.872;9.084;2024-02-14T01:52:57;5.05;;;2.78;;
77513;SDS011;66626;48.872;9.084;2024-02-14T01:55:24;5.93;;;2.80;;
77513;SDS011;66626;48.872;9.084;2024-02-14T01:57:49;6.50;;;2.88;;
77513;SDS011;66626;48.872;9.084;2024-02-14T02:00:15;6.45;;;2.83;;
77513;SDS011;66626;48.872;9.084;2024-02-14T02:02:43;6.65;;;2.83;;
77513;SDS011;66626;48.872;9.084;2024-02-14T02:05:08;8.73;;;2.72;;
77513;SDS011;66626;48.872;9.084;2024-02-14T02:07:34;8.82;;;2.72;;
77513;SDS011;66626;48.872;9.084;2024-02-14T02:09:59;4.97;;;2.58;;
77513;SDS011;66626;48.872;9.084;2024-02-14T02:12:24;6.00;;;2.95;;
77513;SDS011;66626;48.872;9.084;2024-02-14T02:14:52;5.68;;;2.95;;
77513;SDS011;66626;48.872;9.084;2024-02-14T02:17:18;8.25;;;3.33;;
77513;SDS011;66626;48.872;9.084;2024-02-14T02:19:43;8.15;;;2.90;;
77513;SDS011;66626;48.872;9.084;2024-02-14T02:22:09;8.70;;;3.17;;
77513;SDS011;66626;48.872;9.084;2024-02-14T02:24:34;5.97;;;3.33;;
77513;SDS011;66626;48.872;9.084;2024-02-14T02:27:00;6.72;;;3.30;;
77513;SDS011;66626;48.872;9.084;2024-02-14T02:29:26;5.13;;;2.72;;
77513;SDS011;66626;48.872;9.084;2024-02-14T02:31:52;5.82;;;3.00;;
77513;SDS011;66626;48.872;9.084;2024-02-14T02:34:17;4.50;;;2.53;;
77513;SDS011;66626;48.872;9.084;2024-02-14T02:36:43;6.63;;;2.75;;
77513;SDS011;66626;48.872;9.084;2024-02-14T02:39:11;8.38;;;2.92;;
77513;SDS011;66626;48.872;9.084;2024-02-14T02:41:37;6.40;;;2.75;;
77513;SDS011;66626;48.872;9.084;2024-02-14T02:44:02;6.57;;;2.53;;
77513;SDS011;66626;48.872;9.084;2024-02-14T02:46:31;5.10;;;2.40;;
77513;SDS011;66626;48.872;9.084;2024-02-14T02:48:57;6.38;;;2.40;;
77513;SDS011;66626;48.872;9.084;2024-02-14T02:51:23;5.07;;;2.17;;
77513;SDS011;66626;48.872;9.084;2024-02-14T02:53:49;10.43;;;2.50;;
77513;SDS011;66626;48.872;9.084;2024-02-14T02:56:14;8.90;;;2.17;;
77513;SDS011;66626;48.872;9.084;2024-02-14T02:58:39;5.07;;;2.47;;
77513;SDS011;66626;48.872;9.084;2024-02-14T03:01:08;5.95;;;2.50;;
77513;SDS011;66626;48.872;9.084;2024-02-14T03:03:34;4.53;;;2.33;;
77513;SDS011;66626;48.872;9.084;2024-02-14T03:06:01;7.20;;;2.30;;
77513;SDS011;66626;48.872;9.084;2024-02-14T03:08:28;5.30;;;1.95;;
77513;SDS011;66626;48.872;9.084;2024-02-14T03:10:55;7.28;;;2.47;;
77513;SDS011;66626;48.872;9.084;2024-02-14T03:13:20;7.20;;;2.60;;
77513;SDS011;66626;48.872;9.084;2024-02-14T03:15:46;7.65;;;2.63;;
77513;SDS011;66626;48.872;9.084;2024-02-14T03:18:13;5.25;;;2.10;;
77513;SDS011;66626;48.872;9.084;2024-02-14T03:20:38;5.30;;;1.77;;
77513;SDS011;66626;48.872;9.084;2024-02-14T03:23:04;5.88;;;2.47;;
77513;SDS011;66626;48.872;9.084;2024-02-14T03:25:29;8.55;;;1.92;;
77513;SDS011;66626;48.872;9.084;2024-02-14T03:27:54;5.63;;;2.08;;
77513;SDS011;66626;48.872;9.084;2024-02-14T03:30:22;4.15;;;1.90;;
77513;SDS011;66626;48.872;9.084;2024-02-14T03:32:48;7.00;;;1.90;;
77513;SDS011;66626;48.872;9.084;2024-02-14T03:35:14;4.43;;;1.92;;
77513;SDS011;66626;48.872;9.084;2024-02-14T03:37:46;5.55;;;2.25;;
77513;SDS011;66626;48.872;9.084;2024-02-14T03:40:17;7.25;;;2.45;;
77513;SDS011;66626;48.872;9.084;2024-02-14T03:42:42;7.55;;;1.83;;
77513;SDS011;66626;48.872;9.084;2024-02-14T03:45:08;5.00;;;2.10;;
77513;SDS011;66626;48.872;9.084;2024-02-14T03:47:33;11.13;;;2.78;;
77513;SDS011;66626;48.872;9.084;2024-02-14T03:49:59;8.00;;;2.20;;
77513;SDS011;66626;48.872;9.084;2024-02-14T03:52:25;4.90;;;2.20;;
77513;SDS011;66626;48.872;9.084;2024-02-14T03:54:50;4.18;;;1.80;;
77513;SDS011;66626;48.872;9.084;2024-02-14T03:57:16;6.35;;;2.55;;
77513;SDS011;66626;48.872;9.084;2024-02-14T03:59:42;4.95;;;1.63;;
77513;SDS011;66626;48.872;9.084;2024-02-14T04:02:08;7.00;;;2.70;;
77513;SDS011;66626;48.872;9.084;2024-02-14T04:04:35;5.53;;;2.00;;
77513;SDS011;66626;48.872;9.084;2024-02-14T04:07:01;6.57;;;1.80;;
77513;SDS011;66626;48.872;9.084;2024-02-14T04:09:27;4.28;;;1.83;;
77513;SDS011;66626;48.872;9.084;2024-02-14T04:11:52;9.90;;;2.58;;
77513;SDS011;66626;48.872;9.084;2024-02-14T04:14:18;5.60;;;2.28;;
77513;SDS011;66626;48.872;9.084;2024-02-14T04:16:43;4.90;;;1.65;;
77513;SDS011;66626;48.872;9.084;2024-02-14T04:19:08;5.90;;;1.73;;
77513;SDS011;66626;48.872;9.084;2024-02-14T04:21:36;5.32;;;1.75;;
77513;SDS011;66626;48.872;9.084;2024-02-14T04:24:02;5.65;;;1.88;;
77513;SDS011;66626;48.872;9.084;2024-02-14T04:26:28;4.18;;;1.90;;
77513;SDS011;66626;48.872;9.084;2024-02-14T04:28:53;5.00;;;2.10;;
77513;SDS011;66626;48.872;9.084;2024-02-14T04:31:19;4.05;;;1.90;;
77513;SDS011;66626;48.872;9.084;2024-02-14T04:33:44;4.50;;;2.15;;
77513;SDS011;66626;48.872;9.084;2024-02-14T04:36:14;4.68;;;1.95;;
77513;SDS011;66626;48.872;9.084;2024-02-14T04:38:39;4.82;;;2.25;;
77513;SDS011;66626;48.872;9.084;2024-02-14T04:41:05;4.95;;;2.05;;
77513;SDS011;66626;48.872;9.084;2024-02-14T04:43:31;3.65;;;1.67;;
77513;SDS011;66626;48.872;9.084;2024-02-14T04:45:56;3.53;;;1.40;;
77513;SDS011;66626;48.872;9.084;2024-02-14T04:48:21;5.40;;;3.03;;
77513;SDS011;66626;48.872;9.084;2024-02-14T04:50:47;6.30;;;2.15;;
77513;SDS011;66626;48.872;9.084;2024-02-14T04:53:12;6.00;;;1.75;;
77513;SDS011;66626;48.872;9.084;2024-02-14T04:55:37;6.15;;;2.10;;
77513;SDS011;66626;48.872;9.084;2024-02-14T04:58:03;7.40;;;2.00;;
77513;SDS011;66626;48.872;9.084;2024-02-14T05:00:29;6.75;;;2.20;;
77513;SDS011;66626;48.872;9.084;2024-02-14T05:02:55;4.63;;;2.35;;
77513;SDS011;66626;48.872;9.084;2024-02-14T05:05:20;7.68;;;2.05;;
77513;SDS011;66626;48.872;9.084;2024-02-14T05:07:54;5.47;;;1.90;;
77513;SDS011;66626;48.872;9.084;2024-02-14T05:10:20;5.13;;;1.58;;
77513;SDS011;66626;48.872;9.084;2024-02-14T05:12:45;6.50;;;2.00;;
77513;SDS011;66626;48.872;9.084;2024-02-14T05:15:14;5.32;;;1.75;;
77513;SDS011;66626;48.872;9.084;2024-02-14T05:17:41;5.45;;;1.90;;
77513;SDS011;66626;48.872;9.084;2024-02-14T05:20:07;3.90;;;1.90;;
77513;SDS011;66626;48.872;9.084;2024-02-14T05:22:36;4.78;;;1.85;;
77513;SDS011;66626;48.872;9.084;2024-02-14T05:25:04;5.57;;;1.60;;
77513;SDS011;66626;48.872;9.084;2024-02-14T05:27:30;6.65;;;1.63;;
77513;SDS011;66626;48.872;9.084;2024-02-14T05:29:56;5.60;;;2.03;;
77513;SDS011;66626;48.872;9.084;2024-02-14T05:32:22;4.28;;;1.70;;
77513;SDS011;66626;48.872;9.084;2024-02-14T05:34:48;7.03;;;2.38;;
77513;SDS011;66626;48.872;9.084;2024-02-14T05:37:14;6.22;;;1.80;;
77513;SDS011;66626;48.872;9.084;2024-02-14T05:39:39;7.40;;;2.15;;
77513;SDS011;66626;48.872;9.084;2024-02-14T05:42:05;4.82;;;1.80;;
77513;SDS011;66626;48.872;9.084;2024-02-14T05:44:30;5.32;;;1.88;;
77513;SDS011;66626;48.872;9.084;2024-02-14T05:46:55;5.97;;;2.00;;
77513;SDS011;66626;48.872;9.084;2024-02-14T05:49:21;4.28;;;1.75;;
77513;SDS011;66626;48.872;9.084;2024-02-14T05:51:48;4.25;;;1.30;;
77513;SDS011;66626;48.872;9.084;2024-02-14T05:54:15;4.22;;;1.50;;
77513;SDS011;66626;48.872;9.084;2024-02-14T05:56:40;5.10;;;1.52;;
77513;SDS011;66626;48.872;9.084;2024-02-14T05:59:05;4.82;;;1.60;;
77513;SDS011;66626;48.872;9.084;2024-02-14T06:01:30;5.50;;;1.92;;
77513;SDS011;66626;48.872;9.084;2024-02-14T06:03:56;5.72;;;1.85;;
77513;SDS011;66626;48.872;9.084;2024-02-14T06:06:21;4.18;;;1.52;;
77513;SDS011;66626;48.872;9.084;2024-02-14T06:08:48;5.10;;;2.30;;
77513;SDS011;66626;48.872;9.084;2024-02-14T06:11:13;8.35;;;2.65;;
77513;SDS011;66626;48.872;9.084;2024-02-14T06:13:39;4.30;;;2.17;;
77513;SDS011;66626;48.872;9.084;2024-02-14T06:16:05;3.20;;;1.65;;
77513;SDS011;66626;48.872;9.084;2024-02-14T06:18:30;5.70;;;1.55;;
77513;SDS011;66626;48.872;9.084;2024-02-14T06:20:55;6.43;;;2.53;;
77513;SDS011;66626;48.872;9.084;2024-02-14T06:23:21;3.92;;;1.70;;
77513;SDS011;66626;48.872;9.084;2024-02-14T06:25:46;3.38;;;1.33;;
77513;SDS011;66626;48.872;9.084;2024-02-14T06:28:11;5.28;;;1.55;;
77513;SDS011;66626;48.872;9.084;2024-02-14T06:30:37;6.50;;;1.70;;
77513;SDS011;66626;48.872;9.084;2024-02-14T06:33:02;6.45;;;1.25;;
77513;SDS011;66626;48.872;9.084;2024-02-14T06:35:27;5.50;;;1.40;;
77513;SDS011;66626;48.872;9.084;2024-02-14T06:37:53;7.05;;;1.80;;
77513;SDS011;66626;48.872;9.084;2024-02-14T06:40:19;4.50;;;1.50;;
77513;SDS011;66626;48.872;9.084;2024-02-14T06:42:44;12.45;;;1.70;;
77513;SDS011;66626;48.872;9.084;2024-02-14T06:45:09;3.28;;;1.58;;
77513;SDS011;66626;48.872;9.084;2024-02-14T06:47:35;6.00;;;1.60;;
77513;SDS011;66626;48.872;9.084;2024-02-14T06:50:00;4.90;;;1.55;;
77513;SDS011;66626;48.872;9.084;2024-02-14T06:52:26;4.75;;;1.50;;
77513;SDS011;66626;48.872;9.084;2024-02-14T06:54:51;6.15;;;1.67;;
77513;SDS011;66626;48.872;9.084;2024-02-14T06:57:16;4.75;;;1.48;;
77513;SDS011;66626;48.872;9.084;2024-02-14T06:59:42;4.65;;;1.75;;
77513;SDS011;66626;48.872;9.084;2024-02-14T07:02:08;10.75;;;4.35;;
77513;SDS011;66626;48.872;9.084;2024-02-14T07:04:33;5.95;;;1.60;;
77513;SDS011;66626;48.872;9.084;2024-02-14T07:06:58;5.28;;;1.67;;
77513;SDS011;66626;48.872;9.084;2024-02-14T07:09:25;3.38;;;1.42;;
77513;SDS011;66626;48.872;9.084;2024-02-14T07:11:50;4.50;;;1.42;;
77513;SDS011;66626;48.872;9.084;2024-02-14T07:14:18;3.38;;;1.45;;
77513;SDS011;66626;48.872;9.084;2024-02-14T07:16:43;4.18;;;1.45;;
77513;SDS011;66626;48.872;9.084;2024-02-14T07:19:09;2.92;;;1.42;;
77513;SDS011;66626;48.872;9.084;2024-02-14T07:21:34;4.22;;;1.50;;
77513;SDS011;66626;48.872;9.084;2024-02-14T07:24:00;4.53;;;1.73;;
77513;SDS011;66626;48.872;9.084;2024-02-14T07:26:25;6.05;;;1.52;;
77513;SDS011;66626;48.872;9.084;2024-02-14T07:28:50;8.55;;;1.83;;
77513;SDS011;66626;48.872;9.084;2024-02-14T07:31:16;5.50;;;1.30;;
77513;SDS011;66626;48.872;9.084;2024-02-14T07:33:41;3.95;;;1.17;;
77513;SDS011;66626;48.872;9.084;2024-02-14T07:36:08;5.82;;;2.42;;
77513;SDS011;66626;48.872;9.084;2024-02-14T07:38:34;6.40;;;2.17;;
77513;SDS011;66626;48.872;9.084;2024-02-14T07:40:59;4.13;;;1.40;;
77513;SDS011;66626;48.872;9.084;2024-02-14T07:43:24;3.17;;;1.13;;
77513;SDS011;66626;48.872;9.084;2024-02-14T07:45:50;4.38;;;1.73;;
77513;SDS011;66626;48.872;9.084;2024-02-14T07:48:15;3.95;;;1.50;;
77513;SDS011;66626;48.872;9.084;2024-02-14T07:50:40;7.00;;;1.88;;
77513;SDS011;66626;48.872;9.084;2024-02-14T07:53:06;3.88;;;1.52;;
77513;SDS011;66626;48.872;9.084;2024-02-14T07:55:31;6.07;;;1.48;;
77513;SDS011;66626;48.872;9.084;2024-02-14T07:57:56;5.50;;;1.60;;
77513;SDS011;66626;48.872;9.084;2024-02-14T08:00:22;6.25;;;1.50;;
77513;SDS011;66626;48.872;9.084;2024-02-14T08:02:50;6.20;;;1.88;;
77513;SDS011;66626;48.872;9.084;2024-02-14T08:05:15;7.30;;;1.65;;
77513;SDS011;66626;48.872;9.084;2024-02-14T08:07:41;4.85;;;1.70;;
77513;SDS011;66626;48.872;9.084;2024-02-14T08:10:06;5.72;;;1.60;;
77513;SDS011;66626;48.872;9.084;2024-02-14T08:12:32;7.78;;;2.10;;
77513;SDS011;66626;48.872;9.084;2024-02-14T08:14:57;4.80;;;1.73;;
77513;SDS011;66626;48.872;9.084;2024-02-14T08:17:22;7.22;;;3.25;;
77513;SDS011;66626;48.872;9.084;2024-02-14T08:19:47;8.27;;;2.15;;
77513;SDS011;66626;48.872;9.084;2024-02-14T08:22:13;6.00;;;1.67;;
77513;SDS011;66626;48.872;9.084;2024-02-14T08:24:38;3.50;;;1.40;;
77513;SDS011;66626;48.872;9.084;2024-02-14T08:27:04;4.43;;;2.15;;
77513;SDS011;66626;48.872;9.084;2024-02-14T08:29:31;3.65;;;1.58;;
77513;SDS011;66626;48.872;9.084;2024-02-14T08:31:59;7.10;;;1.45;;
77513;SDS011;66626;48.872;9.084;2024-02-14T08:34:25;4.75;;;1.63;;
77513;SDS011;66626;48.872;9.084;2024-02-14T08:36:51;4.40;;;1.70;;
77513;SDS011;66626;48.872;9.084;2024-02-14T08:39:16;6.15;;;1.70;;
77513;SDS011;66626;48.872;9.084;2024-02-14T08:41:43;4.97;;;1.65;;
77513;SDS011;66626;48.872;9.084;2024-02-14T08:44:09;6.45;;;1.58;;
77513;SDS011;66626;48.872;9.084;2024-02-14T08:46:35;7.10;;;1.50;;
77513;SDS011;66626;48.872;9.084;2024-02-14T08:49:00;4.15;;;1.40;;
77513;SDS011;66626;48.872;9.084;2024-02-14T08:51:27;4.97;;;1.80;;
77513;SDS011;66626;48.872;9.084;2024-02-14T08:53:55;6.07;;;2.15;;
77513;SDS011;66626;48.872;9.084;2024-02-14T08:56:22;4.15;;;1.23;;
77513;SDS011;66626;48.872;9.084;2024-02-14T08:58:48;6.78;;;1.60;;
77513;SDS011;66626;48.872;9.084;2024-02-14T09:01:14;4.95;;;1.60;;
77513;SDS011;66626;48.872;9.084;2024-02-14T09:03:40;4.88;;;1.35;;
77513;SDS011;66626;48.872;9.084;2024-02-14T09:06:08;6.28;;;1.95;;
77513;SDS011;66626;48.872;9.084;2024-02-14T09:08:33;5.82;;;1.40;;
77513;SDS011;66626;48.872;9.084;2024-02-14T09:10:59;4.47;;;2.00;;
77513;SDS011;66626;48.872;9.084;2024-02-14T09:13:26;5.70;;;1.75;;
77513;SDS011;66626;48.872;9.084;2024-02-14T09:15:52;3.70;;;1.50;;
77513;SDS011;66626;48.872;9.084;2024-02-14T09:18:19;3.17;;;0.90;;
77513;SDS011;66626;48.872;9.084;2024-02-14T09:20:44;3.33;;;1.30;;
77513;SDS011;66626;48.872;9.084;2024-02-14T09:23:11;6.07;;;2.10;;
77513;SDS011;66626;48.872;9.084;2024-02-14T09:25:39;5.07;;;1.90;;
77513;SDS011;66626;48.872;9.084;2024-02-14T09:28:05;3.35;;;1.58;;
77513;SDS011;66626;48.872;9.084;2024-02-14T09:30:32;3.70;;;1.15;;
77513;SDS011;66626;48.872;9.084;2024-02-14T09:32:58;14.98;;;1.63;;
77513;SDS011;66626;48.872;9.084;2024-02-14T09:35:23;5.85;;;1.40;;
77513;SDS011;66626;48.872;9.084;2024-02-14T09:37:50;5.53;;;1.77;;
77513;SDS011;66626;48.872;9.084;2024-02-14T09:40:16;3.40;;;1.60;;
77513;SDS011;66626;48.872;9.084;2024-02-14T09:42:46;5.20;;;1.50;;
77513;SDS011;66626;48.872;9.084;2024-02-14T09:45:14;5.07;;;1.48;;
77513;SDS011;66626;48.872;9.084;2024-02-14T09:47:39;4.60;;;1.70;;
77513;SDS011;66626;48.872;9.084;2024-02-14T09:50:06;3.35;;;1.35;;
77513;SDS011;66626;48.872;9.084;2024-02-14T09:52:32;2.45;;;1.15;;
77513;SDS011;66626;48.872;9.084;2024-02-14T09:54:58;5.35;;;1.80;;
77513;SDS011;66626;48.872;9.084;2024-02-14T09:57:23;3.28;;;1.20;;
77513;SDS011;66626;48.872;9.084;2024-02-14T09:59:53;3.75;;;1.40;;
77513;SDS011;66626;48.872;9.084;2024-02-14T10:02:19;7.88;;;2.55;;
77513;SDS011;66626;48.872;9.084;2024-02-14T10:04:45;2.75;;;1.10;;
77513;SDS011;66626;48.872;9.084;2024-02-14T10:07:13;7.45;;;1.60;;
77513;SDS011;66626;48.872;9.084;2024-02-14T10:09:41;3.05;;;0.93;;
77513;SDS011;66626;48.872;9.084;2024-02-14T10:12:07;4.97;;;1.40;;
77513;SDS011;66626;48.872;9.084;2024-02-14T10:14:36;4.05;;;1.10;;
77513;SDS011;66626;48.872;9.084;2024-02-14T10:17:02;6.07;;;1.73;;
77513;SDS011;66626;48.872;9.084;2024-02-14T10:19:28;6.50;;;1.23;;
77513;SDS011;66626;48.872;9.084;2024-02-14T10:21:57;4.82;;;1.10;;
77513;SDS011;66626;48.872;9.084;2024-02-14T10:24:27;3.65;;;1.20;;
77513;SDS011;66626;48.872;9.084;2024-02-14T10:26:53;5.47;;;1.55;;
77513;SDS011;66626;48.872;9.084;2024-02-14T10:29:19;2.83;;;1.17;;
77513;SDS011;66626;48.872;9.084;2024-02-14T10:31:45;5.85;;;1.35;;
77513;SDS011;66626;48.872;9.084;2024-02-14T10:34:11;5.55;;;2.00;;
77513;SDS011;66626;48.872;9.084;2024-02-14T10:36:36;3.35;;;1.15;;
77513;SDS011;66626;48.872;9.084;2024-02-14T10:39:05;3.00;;;1.15;;
77513;SDS011;66626;48.872;9.084;2024-02-14T10:41:32;2.97;;;1.10;;
77513;SDS011;66626;48.872;9.084;2024-02-14T10:44:01;5.72;;;1.48;;
77513;SDS011;66626;48.872;9.084;2024-02-14T10:46:28;3.13;;;1.30;;
77513;SDS011;66626;48.872;9.084;2024-02-14T10:48:58;2.90;;;1.33;;
77513;SDS011;66626;48.872;9.084;2024-02-14T10:51:28;3.83;;;1.15;;
77513;SDS011;66626;48.872;9.084;2024-02-14T10:53:56;2.88;;;1.10;;
77513;SDS011;66626;48.872;9.084;2024-02-14T10:56:24;3.47;;;1.65;;
77513;SDS011;66626;48.872;9.084;2024-02-14T10:58:51;4.10;;;1.20;;
77513;SDS011;66626;48.872;9.084;2024-02-14T11:01:22;3.78;;;1.20;;
77513;SDS011;66626;48.872;9.084;2024-02-14T11:03:49;3.20;;;1.08;;
77513;SDS011;66626;48.872;9.084;2024-02-14T11:06:16;6.70;;;1.60;;
77513;SDS011;66626;48.872;9.084;2024-02-14T11:08:42;4.28;;;1.20;;
77513;SDS011;66626;48.872;9.084;2024-02-14T11:11:07;4.80;;;1.50;;
77513;SDS011;66626;48.872;9.084;2024-02-14T11:13:32;3.40;;;1.27;;
77513;SDS011;66626;48.872;9.084;2024-02-14T11:16:00;4.07;;;1.25;;
77513;SDS011;66626;48.872;9.084;2024-02-14T11:18:27;5.13;;;1.13;;
77513;SDS011;66626;48.872;9.084;2024-02-14T11:20:55;13.68;;;1.60;;
77513;SDS011;66626;48.872;9.084;2024-02-14T11:23:22;5.47;;;1.77;;
77513;SDS011;66626;48.872;9.084;2024-02-14T11:25:47;3.17;;;1.08;;
77513;SDS011;66626;48.872;9.084;2024-02-14T11:28:19;2.92;;;1.33;;
77513;SDS011;66626;48.872;9.084;2024-02-14T11:30:48;4.90;;;1.95;;
77513;SDS011;66626;48.872;9.084;2024-02-14T11:33:15;3.67;;;1.33;;
77513;SDS011;66626;48.872;9.084;2024-02-14T11:35:48;5.32;;;2.45;;
77513;SDS011;66626;48.872;9.084;2024-02-14T11:38:16;6.25;;;2.63;;
77513;SDS011;66626;48.872;9.084;2024-02-14T11:40:42;4.00;;;1.33;;
77513;SDS011;66626;48.872;9.084;2024-02-14T11:43:14;4.40;;;1.20;;
77513;SDS011;66626;48.872;9.084;2024-02-14T11:45:45;4.63;;;1.55;;
77513;SDS011;66626;48.872;9.084;2024-02-14T11:48:14;6.32;;;1.45;;
77513;SDS011;66626;48.872;9.084;2024-02-14T11:50:41;7.82;;;1.85;;
77513;SDS011;66626;48.872;9.084;2024-02-14T11:53:10;3.50;;;1.40;;
77513;SDS011;66626;48.872;9.084;2024-02-14T11:55:39;4.57;;;1.50;;
77513;SDS011;66626;48.872;9.084;2024-02-14T11:58:14;5.70;;;1.83;;
77513;SDS011;66626;48.872;9.084;2024-02-14T12:00:41;3.00;;;1.38;;
77513;SDS011;66626;48.872;9.084;2024-02-14T12:03:11;4.20;;;1.35;;
77513;SDS011;66626;48.872;9.084;2024-02-14T12:05:37;4.00;;;1.20;;
77513;SDS011;66626;48.872;9.084;2024-02-14T12:08:04;4.22;;;1.75;;
77513;SDS011;66626;48.872;9.084;2024-02-14T12:10:31;4.10;;;1.67;;
77513;SDS011;66626;48.872;9.084;2024-02-14T12:13:06;2.88;;;1.05;;
77513;SDS011;66626;48.872;9.084;2024-02-14T12:15:40;2.55;;;1.10;;
77513;SDS011;66626;48.872;9.084;2024-02-14T12:20:31;4.80;;;1.88;;
77513;SDS011;66626;48.872;9.084;2024-02-14T12:22:57;3.63;;;0.70;;
77513;SDS011;66626;48.872;9.084;2024-02-14T12:25:23;1.42;;;0.47;;
77513;SDS011;66626;48.872;9.084;2024-02-14T12:27:51;0.77;;;0.43;;
77513;SDS011;66626;48.872;9.084;2024-02-14T12:30:18;2.30;;;0.65;;
77513;SDS011;66626;48.872;9.084;2024-02-14T12:32:57;0.82;;;0.40;;
77513;SDS011;66626;48.872;9.084;2024-02-14T12:35:23;1.55;;;0.30;;
77513;SDS011;66626;48.872;9.084;2024-02-14T12:37:48;1.33;;;0.40;;
77513;SDS011;66626;48.872;9.084;2024-02-14T12:40:14;1.10;;;0.32;;
77513;SDS011;66626;48.872;9.084;2024-02-14T12:42:39;0.85;;;0.50;;
77513;SDS011;66626;48.872;9.084;2024-02-14T12:45:05;0.65;;;0.30;;
77513;SDS011;66626;48.872;9.084;2024-02-14T12:47:34;2.13;;;0.65;;
77513;SDS011;66626;48.872;9.084;2024-02-14T12:50:03;0.50;;;0.30;;
77513;SDS011;66626;48.872;9.084;2024-02-14T12:52:32;1.17;;;0.30;;
77513;SDS011;66626;48.872;9.084;2024-02-14T12:54:57;2.65;;;0.40;;
77513;SDS011;66626;48.872;9.084;2024-02-14T12:57:26;1.70;;;0.60;;
77513;SDS011;66626;48.872;9.084;2024-02-14T12:59:52;2.03;;;0.55;;
77513;SDS011;66626;48.872;9.084;2024-02-14T13:02:18;2.08;;;0.57;;
77513;SDS011;66626;48.872;9.084;2024-02-14T13:04:43;3.53;;;1.40;;
77513;SDS011;66626;48.872;9.084;2024-02-14T13:07:08;7.00;;;3.08;;
77513;SDS011;66626;48.872;9.084;2024-02-14T13:09:34;3.65;;;1.17;;
77513;SDS011;66626;48.872;9.084;2024-02-14T13:11:59;1.25;;;0.60;;
77513;SDS011;66626;48.872;9.084;2024-02-14T13:14:25;1.35;;;0.40;;
77513;SDS011;66626;48.872;9.084;2024-02-14T13:16:50;1.10;;;0.40;;
77513;SDS011;66626;48.872;9.084;2024-02-14T13:19:16;2.03;;;0.40;;
77513;SDS011;66626;48.872;9.084;2024-02-14T13:21:41;2.78;;;0.70;;
77513;SDS011;66626;48.872;9.084;2024-02-14T13:24:12;1.55;;;0.52;;
77513;SDS011;66626;48.872;9.084;2024-02-14T13:26:43;0.55;;;0.30;;
77513;SDS011;66626;48.872;9.084;2024-02-14T13:29:09;1.15;;;0.30;;
77513;SDS011;66626;48.872;9.084;2024-02-14T13:31:34;1.60;;;0.75;;
77513;SDS011;66626;48.872;9.084;2024-02-14T13:33:59;1.65;;;0.63;;
77513;SDS011;66626;48.872;9.084;2024-02-14T13:36:25;0.95;;;0.38;;
77513;SDS011;66626;48.872;9.084;2024-02-14T13:38:50;2.40;;;0.57;;
77513;SDS011;66626;48.872;9.084;2024-02-14T13:41:19;1.75;;;0.40;;
77513;SDS011;66626;48.872;9.084;2024-02-14T13:43:44;2.35;;;0.35;;
77513;SDS011;66626;48.872;9.084;2024-02-14T13:46:09;0.30;;;0.10;;
77513;SDS011;66626;48.872;9.084;2024-02-14T13:48:35;0.85;;;0.30;;
77513;SDS011;66626;48.872;9.084;2024-02-14T13:51:00;1.88;;;0.40;;
77513;SDS011;66626;48.872;9.084;2024-02-14T13:53:28;2.83;;;0.73;;
77513;SDS011;66626;48.872;9.084;2024-02-14T13:55:53;1.45;;;0.73;;
77513;SDS011;66626;48.872;9.084;2024-02-14T13:58:19;1.08;;;0.30;;
77513;SDS011;66626;48.872;9.084;2024-02-14T14:00:44;0.40;;;0.20;;
77513;SDS011;66626;48.872;9.084;2024-02-14T14:03:15;0.00;;;0.00;;
77513;SDS011;66626;48.872;9.084;2024-02-14T14:05:40;0.65;;;0.30;;
77513;SDS011;66626;48.872;9.084;2024-02-14T14:08:06;0.40;;;0.22;;
77513;SDS011;66626;48.872;9.084;2024-02-14T14:10:31;0.85;;;0.30;;
77513;SDS011;66626;48.872;9.084;2024-02-14T14:12:57;1.50;;;0.45;;
77513;SDS011;66626;48.872;9.084;2024-02-14T14:15:22;4.82;;;1.65;;
77513;SDS011;66626;48.872;9.084;2024-02-14T14:17:48;5.35;;;1.90;;
77513;SDS011;66626;48.872;9.084;2024-02-14T14:20:13;6.10;;;2.25;;
77513;SDS011;66626;48.872;9.084;2024-02-14T14:22:39;1.83;;;0.63;;
77513;SDS011;66626;48.872;9.084;2024-02-14T14:25:04;2.45;;;0.43;;
77513;SDS011;66626;48.872;9.084;2024-02-14T14:27:33;5.13;;;0.60;;
77513;SDS011;66626;48.872;9.084;2024-02-14T14:29:58;0.98;;;0.38;;
77513;SDS011;66626;48.872;9.084;2024-02-14T14:32:24;1.08;;;0.40;;
77513;SDS011;66626;48.872;9.084;2024-02-14T14:34:49;0.50;;;0.20;;
77513;SDS011;66626;48.872;9.084;2024-02-14T14:37:14;0.65;;;0.20;;
77513;SDS011;66626;48.872;9.084;2024-02-14T14:39:40;0.65;;;0.20;;
77513;SDS011;66626;48.872;9.084;2024-02-14T14:42:06;0.55;;;0.20;;
77513;SDS011;66626;48.872;9.084;2024-02-14T14:44:33;0.70;;;0.20;;